createdAt,value
2018-12-23T00:00:15.700Z,1002.8
2018-12-23T00:03:15.699Z,1002.7
2018-12-23T00:06:15.882Z,1002.7
2018-12-23T00:09:15.722Z,1002.8
2018-12-23T00:12:15.742Z,1002.8
2018-12-23T00:15:15.717Z,1002.8
2018-12-23T00:18:15.886Z,1002.8
2018-12-23T00:21:15.886Z,1002.9
2018-12-23T00:24:15.911Z,1002.9
2018-12-23T00:27:15.885Z,1002.9
2018-12-23T00:30:20.358Z,1002.9
2018-12-23T00:33:16.246Z,1002.9
2018-12-23T00:36:21.061Z,1002.9
2018-12-23T00:39:16.279Z,1002.9
2018-12-23T00:42:15.374Z,1002.9
2018-12-23T00:45:16.077Z,1002.9
2018-12-23T00:48:15.377Z,1002.9
2018-12-23T00:51:15.401Z,1003.0
2018-12-23T00:54:15.559Z,1003.0
2018-12-23T00:57:15.597Z,1003.2
2018-12-23T01:00:15.726Z,1003.2
2018-12-23T01:03:15.909Z,1003.2
2018-12-23T01:06:15.892Z,1003.3
2018-12-23T01:09:15.900Z,1003.3
2018-12-23T01:12:16.081Z,1003.4
2018-12-23T01:15:15.219Z,1003.3
2018-12-23T01:18:15.754Z,1003.4
2018-12-23T01:21:15.754Z,1003.3
2018-12-23T01:24:15.801Z,1003.2
2018-12-23T01:27:15.954Z,1003.3
2018-12-23T01:30:15.943Z,1003.4
2018-12-23T01:33:16.130Z,1003.4
2018-12-23T01:36:15.459Z,1003.4
2018-12-23T01:39:16.136Z,1003.3
2018-12-23T01:42:15.821Z,1003.3
2018-12-23T01:45:16.158Z,1003.4
2018-12-23T01:48:15.633Z,1003.6
2018-12-23T01:51:15.801Z,1003.5
2018-12-23T01:54:16.510Z,1003.6
2018-12-23T01:57:15.980Z,1003.7
2018-12-23T02:00:16.520Z,1003.6
2018-12-23T02:03:15.809Z,1003.6
2018-12-23T02:06:15.971Z,1003.6
2018-12-23T02:09:16.151Z,1003.5
2018-12-23T02:12:15.371Z,1003.6
2018-12-23T02:15:15.303Z,1003.6
2018-12-23T02:18:15.499Z,1003.6
2018-12-23T02:21:15.493Z,1003.6
2018-12-23T02:24:15.660Z,1003.6
2018-12-23T02:27:15.816Z,1003.6
2018-12-23T02:30:15.654Z,1003.7
2018-12-23T02:33:15.482Z,1003.7
2018-12-23T02:36:15.494Z,1003.7
2018-12-23T02:39:15.484Z,1003.7
2018-12-23T02:42:16.002Z,1003.7
2018-12-23T02:45:16.010Z,1003.6
2018-12-23T02:48:16.186Z,1003.6
2018-12-23T02:51:16.015Z,1003.7
2018-12-23T02:54:16.018Z,1003.7
2018-12-23T02:57:16.019Z,1003.7
2018-12-23T03:00:16.024Z,1003.7
2018-12-23T03:03:15.863Z,1003.8
2018-12-23T03:06:15.857Z,1003.8
2018-12-23T03:09:15.863Z,1003.7
2018-12-23T03:12:15.889Z,1003.8
2018-12-23T03:15:16.201Z,1003.8
2018-12-23T03:18:16.223Z,1003.9
2018-12-23T03:21:16.205Z,1003.8
2018-12-23T03:24:16.043Z,1003.9
2018-12-23T03:27:15.370Z,1003.8
2018-12-23T03:30:15.531Z,1003.7
2018-12-23T03:33:15.876Z,1003.7
2018-12-23T03:36:15.703Z,1003.7
2018-12-23T03:39:15.889Z,1003.6
2018-12-23T03:42:15.713Z,1003.6
2018-12-23T03:45:15.538Z,1003.5
2018-12-23T03:48:15.549Z,1003.5
2018-12-23T03:51:15.550Z,1003.6
2018-12-23T03:54:15.578Z,1003.6
2018-12-23T03:57:16.037Z,1003.6
2018-12-23T04:00:15.215Z,1003.6
2018-12-23T04:03:15.394Z,1003.6
2018-12-23T04:06:24.286Z,1003.6
2018-12-23T04:09:20.920Z,1003.5
2018-12-23T04:12:15.742Z,1003.4
2018-12-23T04:15:16.045Z,1003.4
2018-12-23T04:18:15.369Z,1003.4
2018-12-23T04:21:15.400Z,1003.4
2018-12-23T04:24:15.579Z,1003.4
2018-12-23T04:27:15.919Z,1003.4
2018-12-23T04:30:15.935Z,1003.4
2018-12-23T04:33:15.933Z,1003.3
2018-12-23T04:36:16.457Z,1003.5
2018-12-23T04:39:15.415Z,1003.5
2018-12-23T04:42:15.611Z,1003.6
2018-12-23T04:45:16.127Z,1003.6
2018-12-23T04:48:16.126Z,1003.6
2018-12-23T04:51:16.302Z,1003.6
2018-12-23T04:54:15.613Z,1003.6
2018-12-23T04:57:15.773Z,1003.5
2018-12-23T05:00:15.786Z,1003.5
2018-12-23T05:03:15.964Z,1003.4
2018-12-23T05:06:17.877Z,1003.4
2018-12-23T05:09:15.959Z,1003.3
2018-12-23T05:12:16.123Z,1003.4
2018-12-23T05:15:15.096Z,1003.3
2018-12-23T05:18:15.966Z,1003.3
2018-12-23T05:21:15.434Z,1003.3
2018-12-23T05:24:15.453Z,1003.2
2018-12-23T05:27:15.792Z,1003.3
2018-12-23T05:30:15.625Z,1003.4
2018-12-23T05:33:15.799Z,1003.4
2018-12-23T05:36:15.812Z,1003.4
2018-12-23T05:39:15.805Z,1003.4
2018-12-23T05:42:15.989Z,1003.3
2018-12-23T05:45:15.989Z,1003.3
2018-12-23T05:48:15.816Z,1003.3
2018-12-23T05:51:15.755Z,1003.3
2018-12-23T05:54:16.156Z,1003.3
2018-12-23T05:57:16.155Z,1003.3
2018-12-23T06:00:15.491Z,1003.4
2018-12-23T06:03:15.840Z,1003.4
2018-12-23T06:06:15.836Z,1003.6
2018-12-23T06:09:16.193Z,1003.6
2018-12-23T06:12:15.447Z,1003.5
2018-12-23T06:15:15.667Z,1003.6
2018-12-23T06:18:15.853Z,1003.6
2018-12-23T06:21:16.025Z,1003.6
2018-12-23T06:24:16.359Z,1003.5
2018-12-23T06:27:15.686Z,1003.5
2018-12-23T06:30:15.859Z,1003.6
2018-12-23T06:33:16.028Z,1003.6
2018-12-23T06:36:16.664Z,1003.6
2018-12-23T06:39:15.693Z,1003.7
2018-12-23T06:42:16.028Z,1003.6
2018-12-23T06:45:15.987Z,1003.6
2018-12-23T06:48:16.045Z,1003.6
2018-12-23T06:51:15.359Z,1003.6
2018-12-23T06:54:15.349Z,1003.6
2018-12-23T06:57:15.364Z,1003.6
2018-12-23T07:00:15.496Z,1003.5
2018-12-23T07:03:15.706Z,1003.6
2018-12-23T07:06:16.040Z,1003.5
2018-12-23T07:09:16.085Z,1003.5
2018-12-23T07:12:15.535Z,1003.5
2018-12-23T07:15:16.060Z,1003.6
2018-12-23T07:18:16.290Z,1003.6
2018-12-23T07:21:15.934Z,1003.6
2018-12-23T07:24:16.092Z,1003.6
2018-12-23T07:27:16.948Z,1003.6
2018-12-23T07:30:15.939Z,1003.6
2018-12-23T07:33:15.915Z,1003.6
2018-12-23T07:36:15.726Z,1003.6
2018-12-23T07:39:16.275Z,1003.6
2018-12-23T07:42:16.431Z,1003.6
2018-12-23T07:45:16.107Z,1003.6
2018-12-23T07:48:15.682Z,1003.6
2018-12-23T07:51:16.578Z,1003.6
2018-12-23T07:54:16.613Z,1003.5
2018-12-23T07:57:16.601Z,1003.5
2018-12-23T08:00:17.399Z,1003.6
2018-12-23T08:03:15.605Z,1003.6
2018-12-23T08:06:16.793Z,1003.6
2018-12-23T08:09:16.100Z,1003.6
2018-12-23T08:12:16.290Z,1003.6
2018-12-23T08:15:15.599Z,1003.7
2018-12-23T08:18:15.941Z,1003.6
2018-12-23T08:21:16.299Z,1003.7
2018-12-23T08:24:15.252Z,1003.6
2018-12-23T08:27:15.427Z,1003.6
2018-12-23T08:30:15.258Z,1003.6
2018-12-23T08:33:16.149Z,1003.6
2018-12-23T08:36:15.288Z,1003.6
2018-12-23T08:39:15.443Z,1003.6
2018-12-23T08:42:15.463Z,1003.6
2018-12-23T08:45:15.794Z,1003.5
2018-12-23T08:48:16.145Z,1003.5
2018-12-23T08:51:15.455Z,1003.4
2018-12-23T08:54:15.633Z,1003.4
2018-12-23T08:57:15.805Z,1003.4
2018-12-23T09:00:16.158Z,1003.4
2018-12-23T09:03:18.926Z,1003.4
2018-12-23T09:06:15.111Z,1003.3
2018-12-23T09:09:15.470Z,1003.3
2018-12-23T09:12:15.479Z,1003.3
2018-12-23T09:15:15.675Z,1003.3
2018-12-23T09:18:19.467Z,1003.2
2018-12-23T09:21:15.820Z,1003.3
2018-12-23T09:24:15.830Z,1003.2
2018-12-23T09:27:16.009Z,1003.2
2018-12-23T09:30:15.846Z,1003.2
2018-12-23T09:33:16.009Z,1003.2
2018-12-23T09:36:16.215Z,1003.1
2018-12-23T09:39:16.525Z,1003.1
2018-12-23T09:42:15.492Z,1003.1
2018-12-23T09:45:15.839Z,1003.1
2018-12-23T09:48:15.849Z,1003.0
2018-12-23T09:51:16.192Z,1003.0
2018-12-23T09:54:16.366Z,1003.0
2018-12-23T09:57:15.538Z,1002.9
2018-12-23T10:00:15.685Z,1002.9
2018-12-23T10:03:16.052Z,1002.9
2018-12-23T10:06:16.037Z,1002.9
2018-12-23T10:09:16.386Z,1002.9
2018-12-23T10:12:15.353Z,1002.9
2018-12-23T10:15:15.695Z,1002.9
2018-12-23T10:18:15.706Z,1002.8
2018-12-23T10:21:15.867Z,1002.7
2018-12-23T10:24:16.221Z,1002.7
2018-12-23T10:27:15.364Z,1002.6
2018-12-23T10:30:15.533Z,1002.6
2018-12-23T10:33:15.889Z,1002.5
2018-12-23T10:36:16.058Z,1002.5
2018-12-23T10:39:16.416Z,1002.5
2018-12-23T10:42:15.541Z,1002.4
2018-12-23T10:45:15.726Z,1002.3
2018-12-23T10:48:15.557Z,1002.3
2018-12-23T10:51:15.732Z,1002.1
2018-12-23T10:54:16.073Z,1002.1
2018-12-23T10:57:16.243Z,1002.1
2018-12-23T11:00:15.402Z,1001.9
2018-12-23T11:03:15.563Z,1001.9
2018-12-23T11:06:15.914Z,1001.8
2018-12-23T11:09:16.099Z,1001.7
2018-12-23T11:12:15.415Z,1001.7
2018-12-23T11:15:15.934Z,1001.6
2018-12-23T11:18:15.937Z,1001.5
2018-12-23T11:21:16.104Z,1001.5
2018-12-23T11:24:16.112Z,1001.3
2018-12-23T11:27:15.411Z,1001.3
2018-12-23T11:30:15.412Z,1001.3
2018-12-23T11:33:15.415Z,1001.2
2018-12-23T11:36:15.600Z,1001.2
2018-12-23T11:39:16.660Z,1001.2
2018-12-23T11:42:15.772Z,1001.1
2018-12-23T11:45:16.107Z,1001.1
2018-12-23T11:48:15.949Z,1001.1
2018-12-23T11:51:16.293Z,1001.0
2018-12-23T11:54:16.124Z,1001.0
2018-12-23T11:57:16.124Z,1000.9
2018-12-23T12:00:16.127Z,1000.9
2018-12-23T12:03:16.281Z,1000.9
2018-12-23T12:06:15.442Z,1000.9
2018-12-23T12:09:15.270Z,1000.8
2018-12-23T12:12:15.453Z,1000.7
2018-12-23T12:15:15.620Z,1000.7
2018-12-23T12:18:15.955Z,1000.6
2018-12-23T12:21:16.139Z,1000.5
2018-12-23T12:24:16.139Z,1000.5
2018-12-23T12:27:15.830Z,1000.4
2018-12-23T12:30:15.987Z,1000.4
2018-12-23T12:33:16.171Z,1000.3
2018-12-23T12:36:15.493Z,1000.2
2018-12-23T12:39:15.652Z,1000.1
2018-12-23T12:42:15.838Z,1000.1
2018-12-23T12:45:15.997Z,1000.1
2018-12-23T12:48:16.171Z,1000.0
2018-12-23T12:51:15.311Z,1000.0
2018-12-23T12:54:15.309Z,999.9
2018-12-23T12:57:15.142Z,999.9
2018-12-23T13:00:16.352Z,999.8
2018-12-23T13:03:15.513Z,999.7
2018-12-23T13:06:16.011Z,999.7
2018-12-23T13:09:16.186Z,999.6
2018-12-23T13:12:16.184Z,999.5
2018-12-23T13:15:15.332Z,999.5
2018-12-23T13:18:15.509Z,999.4
2018-12-23T13:21:15.678Z,999.3
2018-12-23T13:24:15.852Z,999.2
2018-12-23T13:27:15.859Z,999.2
2018-12-23T13:30:16.036Z,999.2
2018-12-23T13:33:15.862Z,999.1
2018-12-23T13:36:16.209Z,999.0
2018-12-23T13:39:15.350Z,998.9
2018-12-23T13:42:16.392Z,998.9
2018-12-23T13:45:15.703Z,998.8
2018-12-23T13:48:15.703Z,998.6
2018-12-23T13:51:16.045Z,998.5
2018-12-23T13:54:16.642Z,998.5
2018-12-23T13:57:16.389Z,998.4
2018-12-23T14:00:15.711Z,998.3
2018-12-23T14:03:15.541Z,998.2
2018-12-23T14:06:15.712Z,998.1
2018-12-23T14:09:17.429Z,998.1
2018-12-23T14:12:15.549Z,998.1
2018-12-23T14:15:15.832Z,998.0
2018-12-23T14:18:16.070Z,997.9
2018-12-23T14:21:20.064Z,997.8
2018-12-23T14:24:16.612Z,997.8
2018-12-23T14:27:15.591Z,997.7
2018-12-23T14:30:15.559Z,997.7
2018-12-23T14:33:15.837Z,997.7
2018-12-23T14:36:15.759Z,997.7
2018-12-23T14:39:27.021Z,997.6
2018-12-23T14:42:15.566Z,997.6
2018-12-23T14:45:15.571Z,997.5
2018-12-23T14:48:15.739Z,997.5
2018-12-23T14:51:15.572Z,997.4
2018-12-23T14:54:15.400Z,997.4
2018-12-23T14:57:15.582Z,997.4
2018-12-23T15:00:15.919Z,997.4
2018-12-23T15:03:15.756Z,997.3
2018-12-23T15:06:15.873Z,997.4
2018-12-23T15:09:15.782Z,997.5
2018-12-23T15:12:15.596Z,997.4
2018-12-23T15:15:15.761Z,997.3
2018-12-23T15:18:15.595Z,997.2
2018-12-23T15:21:16.066Z,997.3
2018-12-23T15:24:15.108Z,997.1
2018-12-23T15:27:15.428Z,997.1
2018-12-23T15:30:15.610Z,997.0
2018-12-23T15:33:16.050Z,996.9
2018-12-23T15:36:15.910Z,996.9
2018-12-23T15:39:16.095Z,996.9
2018-12-23T15:42:16.140Z,996.7
2018-12-23T15:45:16.151Z,996.6
2018-12-23T15:48:15.448Z,996.5
2018-12-23T15:51:15.820Z,996.4
2018-12-23T15:54:15.973Z,996.4
2018-12-23T15:57:16.288Z,996.3
2018-12-23T16:00:15.628Z,996.3
2018-12-23T16:03:15.296Z,996.2
2018-12-23T16:06:15.460Z,996.1
2018-12-23T16:09:15.292Z,996.2
2018-12-23T16:12:15.510Z,996.1
2018-12-23T16:15:15.664Z,996.0
2018-12-23T16:18:15.644Z,996.0
2018-12-23T16:21:15.669Z,995.8
2018-12-23T16:24:15.823Z,995.7
2018-12-23T16:27:16.116Z,995.7
2018-12-23T16:30:16.142Z,995.7
2018-12-23T16:33:15.648Z,995.7
2018-12-23T16:36:15.670Z,995.5
2018-12-23T16:39:15.867Z,995.5
2018-12-23T16:42:15.840Z,995.6
2018-12-23T16:45:15.980Z,995.5
2018-12-23T16:48:16.170Z,995.4
2018-12-23T16:51:16.204Z,995.4
2018-12-23T16:54:15.162Z,995.4
2018-12-23T16:57:15.191Z,995.5
2018-12-23T17:00:15.168Z,995.4
2018-12-23T17:03:15.341Z,995.5
2018-12-23T17:06:15.349Z,995.3
2018-12-23T17:09:16.223Z,995.3
2018-12-23T17:12:15.516Z,995.3
2018-12-23T17:15:15.718Z,995.2
2018-12-23T17:18:15.706Z,995.2
2018-12-23T17:21:15.872Z,995.2
2018-12-23T17:24:15.900Z,995.1
2018-12-23T17:27:16.390Z,995.0
2018-12-23T17:30:15.370Z,994.9
2018-12-23T17:33:15.998Z,994.9
2018-12-23T17:36:16.045Z,994.9
2018-12-23T17:39:16.235Z,994.9
2018-12-23T17:42:15.421Z,995.0
2018-12-23T17:45:15.545Z,995.1
2018-12-23T17:48:15.548Z,995.1
2018-12-23T17:51:15.728Z,995.1
2018-12-23T17:54:15.920Z,995.0
2018-12-23T17:57:15.859Z,994.9
2018-12-23T18:00:15.918Z,994.8
2018-12-23T18:03:16.085Z,994.7
2018-12-23T18:06:16.186Z,994.7
2018-12-23T18:09:15.224Z,994.8
2018-12-23T18:12:16.454Z,994.8
2018-12-23T18:15:15.576Z,994.8
2018-12-23T18:18:16.098Z,994.6
2018-12-23T18:21:16.188Z,994.5
2018-12-23T18:24:20.041Z,994.4
2018-12-23T18:27:18.937Z,994.4
2018-12-23T18:30:18.016Z,994.3
2018-12-23T18:33:20.631Z,994.4
2018-12-23T18:36:17.768Z,994.4
2018-12-23T18:39:17.326Z,994.4
2018-12-23T18:42:18.025Z,994.5
2018-12-23T18:45:16.876Z,994.4
2018-12-23T18:48:20.848Z,994.3
2018-12-23T18:51:16.393Z,994.2
2018-12-23T18:54:15.469Z,994.1
2018-12-23T18:57:17.789Z,994.0
2018-12-23T19:00:20.148Z,993.9
2018-12-23T19:03:16.008Z,993.9
2018-12-23T19:06:18.281Z,993.9
2018-12-23T19:09:18.911Z,993.9
2018-12-23T19:12:20.106Z,993.9
2018-12-23T19:15:17.618Z,993.9
2018-12-23T19:18:17.977Z,994.0
2018-12-23T19:21:16.304Z,994.0
2018-12-23T19:24:16.661Z,994.0
2018-12-23T19:27:17.428Z,993.9
2018-12-23T19:30:15.292Z,993.8
2018-12-23T19:33:15.652Z,993.8
2018-12-23T19:36:18.043Z,993.7
2018-12-23T19:39:15.179Z,993.6
2018-12-23T19:42:15.466Z,993.6
2018-12-23T19:45:19.058Z,993.5
2018-12-23T19:48:15.652Z,993.6
2018-12-23T19:51:16.184Z,993.6
2018-12-23T19:54:17.895Z,993.5
2018-12-23T19:57:20.302Z,993.6
2018-12-23T20:00:16.020Z,993.5
2018-12-23T20:03:20.804Z,993.4
2018-12-23T20:06:25.547Z,993.4
2018-12-23T20:09:15.332Z,993.3
2018-12-23T20:12:15.849Z,993.4
2018-12-23T20:15:16.212Z,993.3
2018-12-23T20:18:16.223Z,993.2
2018-12-23T20:21:16.584Z,993.2
2018-12-23T20:24:15.707Z,993.1
2018-12-23T20:27:16.029Z,993.2
2018-12-23T20:30:16.029Z,993.2
2018-12-23T20:33:16.394Z,993.1
2018-12-23T20:36:15.242Z,993.0
2018-12-23T20:39:16.217Z,993.0
2018-12-23T20:42:16.084Z,992.9
2018-12-23T20:45:20.160Z,992.9
2018-12-23T20:48:16.823Z,992.8
2018-12-23T20:51:16.230Z,992.7
2018-12-23T20:54:16.515Z,992.8
2018-12-23T20:57:17.283Z,992.8
2018-12-23T21:00:16.789Z,992.9
2018-12-23T21:03:15.112Z,993.0
2018-12-23T21:06:16.406Z,993.0
2018-12-23T21:09:15.712Z,992.9
2018-12-23T21:12:17.331Z,992.8
2018-12-23T21:15:15.244Z,992.9
2018-12-23T21:18:15.915Z,992.9
2018-12-23T21:21:16.252Z,992.9
2018-12-23T21:24:15.560Z,992.8
2018-12-23T21:27:15.905Z,992.9
2018-12-23T21:30:16.257Z,992.8
2018-12-23T21:33:15.917Z,992.9
2018-12-23T21:36:15.919Z,992.9
2018-12-23T21:39:15.744Z,992.9
2018-12-23T21:42:16.297Z,992.9
2018-12-23T21:45:15.403Z,992.8
2018-12-23T21:48:16.358Z,992.7
2018-12-23T21:51:15.407Z,992.6
2018-12-23T21:54:15.766Z,992.6
2018-12-23T21:57:15.422Z,992.6
2018-12-23T22:00:15.277Z,992.8
2018-12-23T22:03:16.111Z,992.7
2018-12-23T22:06:16.281Z,992.7
2018-12-23T22:09:15.798Z,992.6
2018-12-23T22:12:15.299Z,992.5
2018-12-23T22:15:15.945Z,992.5
2018-12-23T22:18:16.292Z,992.4
2018-12-23T22:21:15.434Z,992.3
2018-12-23T22:24:15.286Z,992.4
2018-12-23T22:27:16.132Z,992.4
2018-12-23T22:30:15.316Z,992.4
2018-12-23T22:33:15.173Z,992.3
2018-12-23T22:36:16.130Z,992.3
2018-12-23T22:39:15.166Z,992.3
2018-12-23T22:42:15.793Z,992.3
2018-12-23T22:45:15.998Z,992.3
2018-12-23T22:48:15.800Z,992.3
2018-12-23T22:51:16.169Z,992.2
2018-12-23T22:54:16.155Z,992.2
2018-12-23T22:57:15.975Z,992.2
2018-12-23T23:00:15.988Z,992.2
2018-12-23T23:03:15.835Z,992.2
2018-12-23T23:06:15.995Z,992.0
2018-12-23T23:09:15.992Z,992.3
2018-12-23T23:12:16.102Z,992.1
2018-12-23T23:15:15.066Z,992.0
2018-12-23T23:18:16.175Z,992.0
2018-12-23T23:21:15.483Z,991.9
2018-12-23T23:24:16.180Z,992.0
2018-12-23T23:27:16.007Z,992.1
2018-12-23T23:30:15.840Z,992.1
2018-12-23T23:33:15.666Z,992.2
2018-12-23T23:36:15.677Z,992.3
2018-12-23T23:39:15.407Z,992.4
2018-12-23T23:42:15.262Z,993.2
2018-12-23T23:45:16.360Z,993.4
2018-12-23T23:48:16.030Z,993.7
2018-12-23T23:51:15.069Z,993.9
2018-12-23T23:54:15.870Z,993.9
2018-12-23T23:57:15.867Z,994.1
